Park Rapids, Minnesota
Current Conditions -  °F | °C
As of 10:53 PM on Saturday 20 Dec 2014 (Local Time) from KPKD Reporting Station
Haze Haze  
Wind Chill: 18°   Ceiling: 300
Heat Index: 29°   Visibility: 5mi
Dew Point: 27°   Wind: 14mph
Humidity: 92%   Direction: 170°S
Pressure: 29.94"   Gusts: NA
Location:  46.92°N, 95.06°W
Report Text: KPKD 210453Z AUTO 17012KT 5SM BR OVC003 M02/M03 A2994 RMK AO2 SLP160 T10171028
Loading
Personal Weather Stations






























Interactive Weather Map New forecast layout! Learn more

10-Day Weather Forecast

Advertisements
Track Severe Weather on mobile